sensor_id;sensor_type;location;lat;lon;timestamp;temperature;humidity
30865;DHT22;17574;49.418;11.038;2022-11-20T00:01:12;2.40;82.80
30865;DHT22;17574;49.418;11.038;2022-11-20T00:03:39;2.40;83.10
30865;DHT22;17574;49.418;11.038;2022-11-20T00:06:07;2.60;83.20
30865;DHT22;17574;49.418;11.038;2022-11-20T00:08:33;2.50;82.50
30865;DHT22;17574;49.418;11.038;2022-11-20T00:11:10;2.40;81.40
30865;DHT22;17574;49.418;11.038;2022-11-20T00:13:42;2.40;81.30
30865;DHT22;17574;49.418;11.038;2022-11-20T00:16:09;2.40;80.40
30865;DHT22;17574;49.418;11.038;2022-11-20T00:18:36;2.40;80.40
30865;DHT22;17574;49.418;11.038;2022-11-20T00:21:07;2.40;80.40
30865;DHT22;17574;49.418;11.038;2022-11-20T00:23:33;2.50;80.40
30865;DHT22;17574;49.418;11.038;2022-11-20T00:26:04;2.50;80.40
30865;DHT22;17574;49.418;11.038;2022-11-20T00:28:30;2.50;79.80
30865;DHT22;17574;49.418;11.038;2022-11-20T00:31:03;2.50;78.70
30865;DHT22;17574;49.418;11.038;2022-11-20T00:33:30;2.40;79.40
30865;DHT22;17574;49.418;11.038;2022-11-20T00:36:02;2.50;78.80
30865;DHT22;17574;49.418;11.038;2022-11-20T00:38:29;2.50;77.80
30865;DHT22;17574;49.418;11.038;2022-11-20T00:40:56;2.50;78.50
30865;DHT22;17574;49.418;11.038;2022-11-20T00:43:23;2.50;79.30
30865;DHT22;17574;49.418;11.038;2022-11-20T00:45:49;2.40;78.60
30865;DHT22;17574;49.418;11.038;2022-11-20T00:48:16;2.40;79.00
30865;DHT22;17574;49.418;11.038;2022-11-20T00:50:42;2.50;80.40
30865;DHT22;17574;49.418;11.038;2022-11-20T00:53:09;2.50;80.00
30865;DHT22;17574;49.418;11.038;2022-11-20T00:55:36;2.50;79.40
30865;DHT22;17574;49.418;11.038;2022-11-20T00:58:02;2.50;78.80
30865;DHT22;17574;49.418;11.038;2022-11-20T01:00:30;2.40;78.30
30865;DHT22;17574;49.418;11.038;2022-11-20T01:02:56;2.50;78.40
30865;DHT22;17574;49.418;11.038;2022-11-20T01:05:23;2.40;78.10
30865;DHT22;17574;49.418;11.038;2022-11-20T01:07:49;2.40;78.60
30865;DHT22;17574;49.418;11.038;2022-11-20T01:10:16;2.40;80.30
30865;DHT22;17574;49.418;11.038;2022-11-20T01:12:43;2.40;80.40
30865;DHT22;17574;49.418;11.038;2022-11-20T01:15:30;2.40;80.40
30865;DHT22;17574;49.418;11.038;2022-11-20T01:17:56;2.40;81.20
30865;DHT22;17574;49.418;11.038;2022-11-20T01:20:23;2.40;82.50
30865;DHT22;17574;49.418;11.038;2022-11-20T01:22:49;2.40;82.70
30865;DHT22;17574;49.418;11.038;2022-11-20T01:25:16;2.50;83.00
30865;DHT22;17574;49.418;11.038;2022-11-20T01:27:42;2.40;82.80
30865;DHT22;17574;49.418;11.038;2022-11-20T01:30:09;2.40;82.90
30865;DHT22;17574;49.418;11.038;2022-11-20T01:32:35;2.40;82.10
30865;DHT22;17574;49.418;11.038;2022-11-20T01:35:02;2.40;82.50
30865;DHT22;17574;49.418;11.038;2022-11-20T01:37:29;2.40;82.40
30865;DHT22;17574;49.418;11.038;2022-11-20T01:39:55;2.40;83.20
30865;DHT22;17574;49.418;11.038;2022-11-20T01:42:22;2.40;83.70
30865;DHT22;17574;49.418;11.038;2022-11-20T01:47:52;2.50;84.40
30865;DHT22;17574;49.418;11.038;2022-11-20T01:50:23;2.50;84.40
30865;DHT22;17574;49.418;11.038;2022-11-20T01:52:57;2.50;84.80
30865;DHT22;17574;49.418;11.038;2022-11-20T01:55:27;2.50;85.70
30865;DHT22;17574;49.418;11.038;2022-11-20T01:57:55;2.50;85.30
30865;DHT22;17574;49.418;11.038;2022-11-20T02:00:22;2.50;86.10
30865;DHT22;17574;49.418;11.038;2022-11-20T02:02:53;2.50;86.70
30865;DHT22;17574;49.418;11.038;2022-11-20T02:05:23;2.60;87.00
30865;DHT22;17574;49.418;11.038;2022-11-20T02:07:50;2.50;85.70
30865;DHT22;17574;49.418;11.038;2022-11-20T02:10:16;2.60;85.10
30865;DHT22;17574;49.418;11.038;2022-11-20T02:12:43;2.50;84.40
30865;DHT22;17574;49.418;11.038;2022-11-20T02:15:28;2.50;84.60
30865;DHT22;17574;49.418;11.038;2022-11-20T02:17:56;2.50;85.90
30865;DHT22;17574;49.418;11.038;2022-11-20T02:20:22;2.60;85.80
30865;DHT22;17574;49.418;11.038;2022-11-20T02:22:59;2.50;85.90
30865;DHT22;17574;49.418;11.038;2022-11-20T02:25:28;2.60;86.70
30865;DHT22;17574;49.418;11.038;2022-11-20T02:27:55;2.60;86.80
30865;DHT22;17574;49.418;11.038;2022-11-20T02:30:22;2.60;86.70
30865;DHT22;17574;49.418;11.038;2022-11-20T02:32:48;2.60;86.90
30865;DHT22;17574;49.418;11.038;2022-11-20T02:37:45;2.60;87.00
30865;DHT22;17574;49.418;11.038;2022-11-20T02:40:13;2.60;87.10
30865;DHT22;17574;49.418;11.038;2022-11-20T02:42:40;2.60;87.10
30865;DHT22;17574;49.418;11.038;2022-11-20T02:45:07;2.60;86.90
30865;DHT22;17574;49.418;11.038;2022-11-20T02:47:33;2.60;86.20
30865;DHT22;17574;49.418;11.038;2022-11-20T02:50:00;2.60;86.50
30865;DHT22;17574;49.418;11.038;2022-11-20T02:52:27;2.60;86.00
30865;DHT22;17574;49.418;11.038;2022-11-20T02:54:53;2.60;86.20
30865;DHT22;17574;49.418;11.038;2022-11-20T02:57:20;2.60;86.40
30865;DHT22;17574;49.418;11.038;2022-11-20T02:59:46;2.60;86.70
30865;DHT22;17574;49.418;11.038;2022-11-20T03:02:13;2.60;86.40
30865;DHT22;17574;49.418;11.038;2022-11-20T03:04:39;2.60;86.70
30865;DHT22;17574;49.418;11.038;2022-11-20T03:07:07;2.60;87.00
30865;DHT22;17574;49.418;11.038;2022-11-20T03:09:34;2.60;87.00
30865;DHT22;17574;49.418;11.038;2022-11-20T03:12:00;2.60;87.10
30865;DHT22;17574;49.418;11.038;2022-11-20T03:14:27;2.60;87.60
30865;DHT22;17574;49.418;11.038;2022-11-20T03:16:53;2.60;88.40
30865;DHT22;17574;49.418;11.038;2022-11-20T03:19:20;2.60;88.40
30865;DHT22;17574;49.418;11.038;2022-11-20T03:21:47;2.80;88.60
30865;DHT22;17574;49.418;11.038;2022-11-20T03:24:13;2.60;88.40
30865;DHT22;17574;49.418;11.038;2022-11-20T03:26:40;2.60;88.40
30865;DHT22;17574;49.418;11.038;2022-11-20T03:29:06;2.60;88.40
30865;DHT22;17574;49.418;11.038;2022-11-20T03:31:34;2.60;88.40
30865;DHT22;17574;49.418;11.038;2022-11-20T03:34:01;2.50;88.30
30865;DHT22;17574;49.418;11.038;2022-11-20T03:36:28;2.50;88.40
30865;DHT22;17574;49.418;11.038;2022-11-20T03:38:55;2.50;88.30
30865;DHT22;17574;49.418;11.038;2022-11-20T03:41:26;2.50;88.40
30865;DHT22;17574;49.418;11.038;2022-11-20T03:43:54;2.50;88.30
30865;DHT22;17574;49.418;11.038;2022-11-20T03:46:21;2.50;88.30
30865;DHT22;17574;49.418;11.038;2022-11-20T03:48:48;2.50;88.30
30865;DHT22;17574;49.418;11.038;2022-11-20T03:53:44;2.50;88.30
30865;DHT22;17574;49.418;11.038;2022-11-20T03:56:12;2.50;88.40
30865;DHT22;17574;49.418;11.038;2022-11-20T03:58:39;2.50;88.30
30865;DHT22;17574;49.418;11.038;2022-11-20T04:01:06;2.50;88.70
30865;DHT22;17574;49.418;11.038;2022-11-20T04:03:33;2.50;88.90
30865;DHT22;17574;49.418;11.038;2022-11-20T04:06:07;2.50;89.10
30865;DHT22;17574;49.418;11.038;2022-11-20T04:08:34;2.60;88.70
30865;DHT22;17574;49.418;11.038;2022-11-20T04:11:07;2.50;88.40
30865;DHT22;17574;49.418;11.038;2022-11-20T04:13:34;2.60;88.80
30865;DHT22;17574;49.418;11.038;2022-11-20T04:16:00;2.60;89.00
30865;DHT22;17574;49.418;11.038;2022-11-20T04:18:27;2.60;89.00
30865;DHT22;17574;49.418;11.038;2022-11-20T04:20:54;2.60;88.50
30865;DHT22;17574;49.418;11.038;2022-11-20T04:23:22;2.70;88.70
30865;DHT22;17574;49.418;11.038;2022-11-20T04:25:54;2.60;88.40
30865;DHT22;17574;49.418;11.038;2022-11-20T04:28:20;2.60;88.40
30865;DHT22;17574;49.418;11.038;2022-11-20T04:30:47;2.60;88.50
30865;DHT22;17574;49.418;11.038;2022-11-20T04:33:14;2.60;88.40
30865;DHT22;17574;49.418;11.038;2022-11-20T04:35:40;2.60;88.40
30865;DHT22;17574;49.418;11.038;2022-11-20T04:38:07;2.60;88.40
30865;DHT22;17574;49.418;11.038;2022-11-20T04:40:33;2.60;88.50
30865;DHT22;17574;49.418;11.038;2022-11-20T04:43:00;2.60;88.40
30865;DHT22;17574;49.418;11.038;2022-11-20T04:45:26;2.60;88.40
30865;DHT22;17574;49.418;11.038;2022-11-20T04:47:53;2.60;88.50
30865;DHT22;17574;49.418;11.038;2022-11-20T04:50:19;2.60;88.50
30865;DHT22;17574;49.418;11.038;2022-11-20T04:52:46;2.60;88.60
30865;DHT22;17574;49.418;11.038;2022-11-20T04:55:12;2.60;89.80
30865;DHT22;17574;49.418;11.038;2022-11-20T04:57:39;2.60;89.50
30865;DHT22;17574;49.418;11.038;2022-11-20T05:00:06;2.60;90.00
30865;DHT22;17574;49.418;11.038;2022-11-20T05:02:33;2.60;89.60
30865;DHT22;17574;49.418;11.038;2022-11-20T05:04:59;2.60;89.20
30865;DHT22;17574;49.418;11.038;2022-11-20T05:07:26;2.70;89.50
30865;DHT22;17574;49.418;11.038;2022-11-20T05:09:52;2.60;89.90
30865;DHT22;17574;49.418;11.038;2022-11-20T05:12:19;2.70;90.00
30865;DHT22;17574;49.418;11.038;2022-11-20T05:14:46;2.60;89.20
30865;DHT22;17574;49.418;11.038;2022-11-20T05:17:13;2.80;88.70
30865;DHT22;17574;49.418;11.038;2022-11-20T05:19:39;2.60;88.90
30865;DHT22;17574;49.418;11.038;2022-11-20T05:22:06;2.70;89.90
30865;DHT22;17574;49.418;11.038;2022-11-20T05:24:32;2.70;89.80
30865;DHT22;17574;49.418;11.038;2022-11-20T05:26:59;2.70;90.20
30865;DHT22;17574;49.418;11.038;2022-11-20T05:29:25;2.70;90.20
30865;DHT22;17574;49.418;11.038;2022-11-20T05:31:52;2.80;90.20
30865;DHT22;17574;49.418;11.038;2022-11-20T05:34:18;2.70;90.10
30865;DHT22;17574;49.418;11.038;2022-11-20T05:36:45;2.70;89.90
30865;DHT22;17574;49.418;11.038;2022-11-20T05:39:11;2.80;90.00
30865;DHT22;17574;49.418;11.038;2022-11-20T05:41:38;2.80;90.20
30865;DHT22;17574;49.418;11.038;2022-11-20T05:44:05;2.70;90.20
30865;DHT22;17574;49.418;11.038;2022-11-20T05:46:31;2.80;90.50
30865;DHT22;17574;49.418;11.038;2022-11-20T05:48:58;2.80;90.40
30865;DHT22;17574;49.418;11.038;2022-11-20T05:51:25;2.80;90.30
30865;DHT22;17574;49.418;11.038;2022-11-20T05:53:51;2.80;90.30
30865;DHT22;17574;49.418;11.038;2022-11-20T05:56:19;2.80;90.30
30865;DHT22;17574;49.418;11.038;2022-11-20T05:58:46;2.80;90.50
30865;DHT22;17574;49.418;11.038;2022-11-20T06:01:13;2.80;90.30
30865;DHT22;17574;49.418;11.038;2022-11-20T06:03:40;2.80;90.30
30865;DHT22;17574;49.418;11.038;2022-11-20T06:06:08;2.80;90.50
30865;DHT22;17574;49.418;11.038;2022-11-20T06:08:35;2.80;90.30
30865;DHT22;17574;49.418;11.038;2022-11-20T06:11:05;2.90;90.60
30865;DHT22;17574;49.418;11.038;2022-11-20T06:13:32;2.80;90.40
30865;DHT22;17574;49.418;11.038;2022-11-20T06:16:03;2.90;90.40
30865;DHT22;17574;49.418;11.038;2022-11-20T06:18:30;2.80;90.40
30865;DHT22;17574;49.418;11.038;2022-11-20T06:21:00;2.80;90.20
30865;DHT22;17574;49.418;11.038;2022-11-20T06:23:27;2.80;90.00
30865;DHT22;17574;49.418;11.038;2022-11-20T06:25:54;2.80;89.90
30865;DHT22;17574;49.418;11.038;2022-11-20T06:28:21;2.80;90.00
30865;DHT22;17574;49.418;11.038;2022-11-20T06:30:48;2.80;90.00
30865;DHT22;17574;49.418;11.038;2022-11-20T06:33:15;2.50;90.10
30865;DHT22;17574;49.418;11.038;2022-11-20T06:35:41;2.90;90.30
30865;DHT22;17574;49.418;11.038;2022-11-20T06:38:08;2.90;90.50
30865;DHT22;17574;49.418;11.038;2022-11-20T06:40:34;2.80;90.40
30865;DHT22;17574;49.418;11.038;2022-11-20T06:43:01;2.90;90.30
30865;DHT22;17574;49.418;11.038;2022-11-20T06:45:27;2.90;90.50
30865;DHT22;17574;49.418;11.038;2022-11-20T06:47:54;3.00;91.00
30865;DHT22;17574;49.418;11.038;2022-11-20T06:50:23;2.90;90.70
30865;DHT22;17574;49.418;11.038;2022-11-20T06:52:49;2.90;90.90
30865;DHT22;17574;49.418;11.038;2022-11-20T06:55:16;2.90;90.70
30865;DHT22;17574;49.418;11.038;2022-11-20T06:57:42;2.90;90.70
30865;DHT22;17574;49.418;11.038;2022-11-20T07:00:09;2.90;90.70
30865;DHT22;17574;49.418;11.038;2022-11-20T07:02:36;2.90;90.80
30865;DHT22;17574;49.418;11.038;2022-11-20T07:05:03;2.90;91.00
30865;DHT22;17574;49.418;11.038;2022-11-20T07:07:30;3.00;91.10
30865;DHT22;17574;49.418;11.038;2022-11-20T07:09:56;3.10;91.20
30865;DHT22;17574;49.418;11.038;2022-11-20T07:12:23;3.00;90.80
30865;DHT22;17574;49.418;11.038;2022-11-20T07:14:49;3.00;90.90
30865;DHT22;17574;49.418;11.038;2022-11-20T07:17:16;3.00;90.90
30865;DHT22;17574;49.418;11.038;2022-11-20T07:19:42;3.00;91.40
30865;DHT22;17574;49.418;11.038;2022-11-20T07:22:09;3.00;91.10
30865;DHT22;17574;49.418;11.038;2022-11-20T07:24:36;3.00;91.10
30865;DHT22;17574;49.418;11.038;2022-11-20T07:27:08;3.00;91.10
30865;DHT22;17574;49.418;11.038;2022-11-20T07:29:35;3.00;91.20
30865;DHT22;17574;49.418;11.038;2022-11-20T07:32:01;3.00;91.10
30865;DHT22;17574;49.418;11.038;2022-11-20T07:34:28;3.00;91.20
30865;DHT22;17574;49.418;11.038;2022-11-20T07:36:54;3.30;91.30
30865;DHT22;17574;49.418;11.038;2022-11-20T07:39:21;3.10;91.20
30865;DHT22;17574;49.418;11.038;2022-11-20T07:41:48;3.10;91.20
30865;DHT22;17574;49.418;11.038;2022-11-20T07:44:15;3.10;91.20
30865;DHT22;17574;49.418;11.038;2022-11-20T07:46:42;3.20;91.20
30865;DHT22;17574;49.418;11.038;2022-11-20T07:49:08;3.20;91.20
30865;DHT22;17574;49.418;11.038;2022-11-20T07:51:35;3.10;91.20
30865;DHT22;17574;49.418;11.038;2022-11-20T07:54:01;3.20;91.20
30865;DHT22;17574;49.418;11.038;2022-11-20T07:56:28;3.30;91.30
30865;DHT22;17574;49.418;11.038;2022-11-20T07:58:54;3.30;91.30
30865;DHT22;17574;49.418;11.038;2022-11-20T08:01:21;3.30;91.30
30865;DHT22;17574;49.418;11.038;2022-11-20T08:03:47;3.30;91.30
30865;DHT22;17574;49.418;11.038;2022-11-20T08:06:14;3.30;91.50
30865;DHT22;17574;49.418;11.038;2022-11-20T08:08:41;3.30;91.60
30865;DHT22;17574;49.418;11.038;2022-11-20T08:11:08;3.40;91.90
30865;DHT22;17574;49.418;11.038;2022-11-20T08:13:53;2.90;91.20
30865;DHT22;17574;49.418;11.038;2022-11-20T08:16:39;3.50;91.30
30865;DHT22;17574;49.418;11.038;2022-11-20T08:19:06;3.50;91.20
30865;DHT22;17574;49.418;11.038;2022-11-20T08:21:33;3.50;90.90
30865;DHT22;17574;49.418;11.038;2022-11-20T08:24:04;3.50;91.00
30865;DHT22;17574;49.418;11.038;2022-11-20T08:26:30;3.50;91.30
30865;DHT22;17574;49.418;11.038;2022-11-20T08:28:57;3.50;91.30
30865;DHT22;17574;49.418;11.038;2022-11-20T08:31:24;3.60;91.20
30865;DHT22;17574;49.418;11.038;2022-11-20T08:33:51;3.60;91.40
30865;DHT22;17574;49.418;11.038;2022-11-20T08:36:18;3.60;91.40
30865;DHT22;17574;49.418;11.038;2022-11-20T08:38:48;3.70;91.40
30865;DHT22;17574;49.418;11.038;2022-11-20T08:41:15;3.70;90.80
30865;DHT22;17574;49.418;11.038;2022-11-20T08:43:55;3.80;90.00
30865;DHT22;17574;49.418;11.038;2022-11-20T08:46:25;3.80;89.50
30865;DHT22;17574;49.418;11.038;2022-11-20T08:48:52;3.80;89.40
30865;DHT22;17574;49.418;11.038;2022-11-20T08:51:19;3.90;89.50
30865;DHT22;17574;49.418;11.038;2022-11-20T08:53:46;3.90;89.20
30865;DHT22;17574;49.418;11.038;2022-11-20T08:56:15;3.90;87.00
30865;DHT22;17574;49.418;11.038;2022-11-20T08:58:41;3.90;86.80
30865;DHT22;17574;49.418;11.038;2022-11-20T09:01:28;3.80;86.80
30865;DHT22;17574;49.418;11.038;2022-11-20T09:03:55;3.80;86.10
30865;DHT22;17574;49.418;11.038;2022-11-20T09:06:23;3.80;86.90
30865;DHT22;17574;49.418;11.038;2022-11-20T09:08:53;3.80;87.50
30865;DHT22;17574;49.418;11.038;2022-11-20T09:11:20;3.90;88.20
30865;DHT22;17574;49.418;11.038;2022-11-20T09:13:46;3.80;87.60
30865;DHT22;17574;49.418;11.038;2022-11-20T09:16:13;3.80;88.10
30865;DHT22;17574;49.418;11.038;2022-11-20T09:18:39;3.80;88.10
30865;DHT22;17574;49.418;11.038;2022-11-20T09:21:09;3.90;89.00
30865;DHT22;17574;49.418;11.038;2022-11-20T09:23:37;3.90;89.50
30865;DHT22;17574;49.418;11.038;2022-11-20T09:26:04;3.90;89.50
30865;DHT22;17574;49.418;11.038;2022-11-20T09:28:31;3.90;88.00
30865;DHT22;17574;49.418;11.038;2022-11-20T09:30:58;4.00;88.50
30865;DHT22;17574;49.418;11.038;2022-11-20T09:33:25;4.00;88.90
30865;DHT22;17574;49.418;11.038;2022-11-20T09:35:51;4.00;89.00
30865;DHT22;17574;49.418;11.038;2022-11-20T09:38:18;4.10;89.50
30865;DHT22;17574;49.418;11.038;2022-11-20T09:40:57;4.20;87.70
30865;DHT22;17574;49.418;11.038;2022-11-20T09:43:28;4.20;88.00
30865;DHT22;17574;49.418;11.038;2022-11-20T09:54:16;4.60;88.70
30865;DHT22;17574;49.418;11.038;2022-11-20T09:56:45;4.60;88.30
30865;DHT22;17574;49.418;11.038;2022-11-20T09:59:26;4.60;88.30
30865;DHT22;17574;49.418;11.038;2022-11-20T10:01:54;4.70;88.10
30865;DHT22;17574;49.418;11.038;2022-11-20T10:04:21;4.70;89.70
30865;DHT22;17574;49.418;11.038;2022-11-20T10:07:11;6.00;96.90
30865;DHT22;17574;49.418;11.038;2022-11-20T10:09:58;5.70;93.30
30865;DHT22;17574;49.418;11.038;2022-11-20T10:15:07;5.30;91.00
30865;DHT22;17574;49.418;11.038;2022-11-20T10:17:55;5.20;90.60
30865;DHT22;17574;49.418;11.038;2022-11-20T10:20:27;5.10;90.20
30865;DHT22;17574;49.418;11.038;2022-11-20T10:23:11;5.10;90.40
30865;DHT22;17574;49.418;11.038;2022-11-20T10:26:02;5.10;90.60
30865;DHT22;17574;49.418;11.038;2022-11-20T10:28:40;5.10;90.80
30865;DHT22;17574;49.418;11.038;2022-11-20T10:31:27;5.10;90.70
30865;DHT22;17574;49.418;11.038;2022-11-20T10:33:54;5.10;90.20
30865;DHT22;17574;49.418;11.038;2022-11-20T10:36:41;5.20;90.60
30865;DHT22;17574;49.418;11.038;2022-11-20T10:39:18;5.30;90.20
30865;DHT22;17574;49.418;11.038;2022-11-20T10:41:49;5.30;90.40
30865;DHT22;17574;49.418;11.038;2022-11-20T10:44:17;5.30;90.20
30865;DHT22;17574;49.418;11.038;2022-11-20T10:47:05;5.50;90.30
30865;DHT22;17574;49.418;11.038;2022-11-20T10:49:36;5.40;90.70
30865;DHT22;17574;49.418;11.038;2022-11-20T10:52:11;5.60;91.20
30865;DHT22;17574;49.418;11.038;2022-11-20T10:57:17;5.70;90.40
30865;DHT22;17574;49.418;11.038;2022-11-20T11:00:02;5.70;90.60
30865;DHT22;17574;49.418;11.038;2022-11-20T11:05:17;5.90;91.30
30865;DHT22;17574;49.418;11.038;2022-11-20T11:07:48;6.10;91.20
30865;DHT22;17574;49.418;11.038;2022-11-20T11:10:39;6.20;90.60
30865;DHT22;17574;49.418;11.038;2022-11-20T11:13:03;6.30;90.60
30865;DHT22;17574;49.418;11.038;2022-11-20T11:15:35;6.40;90.60
30865;DHT22;17574;49.418;11.038;2022-11-20T11:18:03;6.60;90.10
30865;DHT22;17574;49.418;11.038;2022-11-20T11:20:29;6.50;90.20
30865;DHT22;17574;49.418;11.038;2022-11-20T11:22:57;6.50;89.60
30865;DHT22;17574;49.418;11.038;2022-11-20T11:25:34;6.60;90.10
30865;DHT22;17574;49.418;11.038;2022-11-20T11:28:19;6.80;90.80
30865;DHT22;17574;49.418;11.038;2022-11-20T11:30:46;6.90;90.80
30865;DHT22;17574;49.418;11.038;2022-11-20T11:33:20;6.80;76.50
30865;DHT22;17574;49.418;11.038;2022-11-20T11:35:47;6.50;67.10
30865;DHT22;17574;49.418;11.038;2022-11-20T11:38:19;6.20;66.80
30865;DHT22;17574;49.418;11.038;2022-11-20T11:40:47;6.00;69.20
30865;DHT22;17574;49.418;11.038;2022-11-20T11:43:18;5.90;71.20
30865;DHT22;17574;49.418;11.038;2022-11-20T11:46:06;5.80;70.70
30865;DHT22;17574;49.418;11.038;2022-11-20T11:48:36;5.70;72.30
30865;DHT22;17574;49.418;11.038;2022-11-20T11:51:07;5.70;74.20
30865;DHT22;17574;49.418;11.038;2022-11-20T11:53:34;5.60;74.70
30865;DHT22;17574;49.418;11.038;2022-11-20T11:56:10;5.60;74.80
30865;DHT22;17574;49.418;11.038;2022-11-20T11:58:43;5.60;75.50
30865;DHT22;17574;49.418;11.038;2022-11-20T12:06:39;5.70;74.80
30865;DHT22;17574;49.418;11.038;2022-11-20T12:09:10;5.80;74.90
30865;DHT22;17574;49.418;11.038;2022-11-20T12:11:39;5.90;75.00
30865;DHT22;17574;49.418;11.038;2022-11-20T12:14:13;5.90;74.60
30865;DHT22;17574;49.418;11.038;2022-11-20T12:16:40;5.90;72.60
30865;DHT22;17574;49.418;11.038;2022-11-20T12:19:11;5.90;75.00
30865;DHT22;17574;49.418;11.038;2022-11-20T12:22:02;5.90;75.00
30865;DHT22;17574;49.418;11.038;2022-11-20T12:24:40;5.90;75.00
30865;DHT22;17574;49.418;11.038;2022-11-20T12:37:04;5.80;74.90
30865;DHT22;17574;49.418;11.038;2022-11-20T12:39:35;5.80;75.10
30865;DHT22;17574;49.418;11.038;2022-11-20T12:45:07;6.00;76.10
30865;DHT22;17574;49.418;11.038;2022-11-20T12:47:41;6.00;75.10
30865;DHT22;17574;49.418;11.038;2022-11-20T12:52:48;6.30;73.30
30865;DHT22;17574;49.418;11.038;2022-11-20T12:55:28;6.30;73.80
30865;DHT22;17574;49.418;11.038;2022-11-20T12:57:58;6.40;72.00
30865;DHT22;17574;49.418;11.038;2022-11-20T13:00:28;6.30;71.80
30865;DHT22;17574;49.418;11.038;2022-11-20T13:03:06;6.40;71.20
30865;DHT22;17574;49.418;11.038;2022-11-20T13:08:20;6.10;75.20
30865;DHT22;17574;49.418;11.038;2022-11-20T13:10:49;6.10;75.20
30865;DHT22;17574;49.418;11.038;2022-11-20T13:13:25;6.10;75.10
30865;DHT22;17574;49.418;11.038;2022-11-20T13:15:56;6.10;75.20
30865;DHT22;17574;49.418;11.038;2022-11-20T13:18:24;6.00;76.10
30865;DHT22;17574;49.418;11.038;2022-11-20T13:20:51;6.10;76.00
30865;DHT22;17574;49.418;11.038;2022-11-20T13:23:27;6.10;76.00
30865;DHT22;17574;49.418;11.038;2022-11-20T13:28:39;5.90;79.10
30865;DHT22;17574;49.418;11.038;2022-11-20T13:31:10;5.80;81.90
30865;DHT22;17574;49.418;11.038;2022-11-20T13:33:49;5.80;83.10
30865;DHT22;17574;49.418;11.038;2022-11-20T13:36:25;5.80;83.30
30865;DHT22;17574;49.418;11.038;2022-11-20T13:38:52;5.80;83.70
30865;DHT22;17574;49.418;11.038;2022-11-20T13:41:23;5.80;84.30
30865;DHT22;17574;49.418;11.038;2022-11-20T13:46:37;5.20;84.40
30865;DHT22;17574;49.418;11.038;2022-11-20T13:49:14;5.80;85.10
30865;DHT22;17574;49.418;11.038;2022-11-20T13:51:44;5.80;85.70
30865;DHT22;17574;49.418;11.038;2022-11-20T13:57:01;5.80;87.10
30865;DHT22;17574;49.418;11.038;2022-11-20T14:02:18;5.80;87.10
30865;DHT22;17574;49.418;11.038;2022-11-20T14:04:46;5.80;87.20
30865;DHT22;17574;49.418;11.038;2022-11-20T14:07:14;5.70;87.20
30865;DHT22;17574;49.418;11.038;2022-11-20T14:09:49;5.90;88.80
30865;DHT22;17574;49.418;11.038;2022-11-20T14:12:16;5.70;89.70
30865;DHT22;17574;49.418;11.038;2022-11-20T14:14:47;5.80;89.00
30865;DHT22;17574;49.418;11.038;2022-11-20T14:17:18;5.80;88.50
30865;DHT22;17574;49.418;11.038;2022-11-20T14:19:45;5.80;87.30
30865;DHT22;17574;49.418;11.038;2022-11-20T14:22:23;5.90;87.20
30865;DHT22;17574;49.418;11.038;2022-11-20T14:25:04;5.90;87.10
30865;DHT22;17574;49.418;11.038;2022-11-20T14:27:36;5.80;87.10
30865;DHT22;17574;49.418;11.038;2022-11-20T14:30:03;5.80;87.10
30865;DHT22;17574;49.418;11.038;2022-11-20T14:32:30;5.80;87.10
30865;DHT22;17574;49.418;11.038;2022-11-20T14:34:59;5.80;87.60
30865;DHT22;17574;49.418;11.038;2022-11-20T14:37:28;5.80;87.90
30865;DHT22;17574;49.418;11.038;2022-11-20T14:39:57;5.80;88.10
30865;DHT22;17574;49.418;11.038;2022-11-20T14:42:25;5.80;88.30
30865;DHT22;17574;49.418;11.038;2022-11-20T14:44:54;5.80;88.60
30865;DHT22;17574;49.418;11.038;2022-11-20T14:47:22;5.80;88.70
30865;DHT22;17574;49.418;11.038;2022-11-20T14:49:50;5.80;88.90
30865;DHT22;17574;49.418;11.038;2022-11-20T14:52:18;5.70;88.40
30865;DHT22;17574;49.418;11.038;2022-11-20T14:54:46;5.70;89.40
30865;DHT22;17574;49.418;11.038;2022-11-20T15:02:41;5.70;90.30
30865;DHT22;17574;49.418;11.038;2022-11-20T15:05:08;5.70;89.90
30865;DHT22;17574;49.418;11.038;2022-11-20T15:07:36;5.70;90.40
30865;DHT22;17574;49.418;11.038;2022-11-20T15:10:04;5.60;90.30
30865;DHT22;17574;49.418;11.038;2022-11-20T15:12:32;5.60;90.40
30865;DHT22;17574;49.418;11.038;2022-11-20T15:15:00;5.60;90.30
30865;DHT22;17574;49.418;11.038;2022-11-20T15:17:27;5.60;90.30
30865;DHT22;17574;49.418;11.038;2022-11-20T15:19:53;5.60;90.30
30865;DHT22;17574;49.418;11.038;2022-11-20T15:22:21;5.70;90.40
30865;DHT22;17574;49.418;11.038;2022-11-20T15:24:47;5.60;90.30
30865;DHT22;17574;49.418;11.038;2022-11-20T15:27:14;5.60;90.30
30865;DHT22;17574;49.418;11.038;2022-11-20T15:29:41;5.60;90.30
30865;DHT22;17574;49.418;11.038;2022-11-20T15:32:08;5.60;90.30
30865;DHT22;17574;49.418;11.038;2022-11-20T15:34:39;5.60;90.40
30865;DHT22;17574;49.418;11.038;2022-11-20T15:37:05;5.60;90.40
30865;DHT22;17574;49.418;11.038;2022-11-20T15:39:32;5.60;90.30
30865;DHT22;17574;49.418;11.038;2022-11-20T15:41:58;8.00;98.10
30865;DHT22;17574;49.418;11.038;2022-11-20T15:44:25;7.40;90.70
30865;DHT22;17574;49.418;11.038;2022-11-20T15:46:52;6.90;81.90
30865;DHT22;17574;49.418;11.038;2022-11-20T15:49:18;6.50;79.60
30865;DHT22;17574;49.418;11.038;2022-11-20T15:51:46;6.30;82.60
30865;DHT22;17574;49.418;11.038;2022-11-20T15:54:18;6.10;84.10
30865;DHT22;17574;49.418;11.038;2022-11-20T15:56:47;6.00;85.70
30865;DHT22;17574;49.418;11.038;2022-11-20T15:59:14;5.90;86.10
30865;DHT22;17574;49.418;11.038;2022-11-20T16:01:41;5.90;87.50
30865;DHT22;17574;49.418;11.038;2022-11-20T16:04:09;5.90;88.10
30865;DHT22;17574;49.418;11.038;2022-11-20T16:06:36;5.80;87.90
30865;DHT22;17574;49.418;11.038;2022-11-20T16:09:03;5.80;89.90
30865;DHT22;17574;49.418;11.038;2022-11-20T16:11:30;5.70;89.60
30865;DHT22;17574;49.418;11.038;2022-11-20T16:13:56;5.70;89.40
30865;DHT22;17574;49.418;11.038;2022-11-20T16:16:41;5.60;90.20
30865;DHT22;17574;49.418;11.038;2022-11-20T16:19:12;5.60;90.30
30865;DHT22;17574;49.418;11.038;2022-11-20T16:21:39;5.60;90.40
30865;DHT22;17574;49.418;11.038;2022-11-20T16:24:11;5.60;90.40
30865;DHT22;17574;49.418;11.038;2022-11-20T16:26:39;5.60;90.30
30865;DHT22;17574;49.418;11.038;2022-11-20T16:29:06;5.50;90.30
30865;DHT22;17574;49.418;11.038;2022-11-20T16:31:33;5.50;90.60
30865;DHT22;17574;49.418;11.038;2022-11-20T16:34:01;5.50;90.30
30865;DHT22;17574;49.418;11.038;2022-11-20T16:36:35;5.60;90.60
30865;DHT22;17574;49.418;11.038;2022-11-20T16:39:02;5.60;90.30
30865;DHT22;17574;49.418;11.038;2022-11-20T16:41:30;5.50;89.60
30865;DHT22;17574;49.418;11.038;2022-11-20T16:43:58;5.60;90.10
30865;DHT22;17574;49.418;11.038;2022-11-20T16:46:25;5.50;89.30